Overview Statistics Trail Chart Weather Telemetry Raw packets
 

This is the latest recevied telemetry packets stored in our database for station/object OE5OVL-97. If no packets are shown the sender has not sent any telemetry packets the latest 10 day(s).

Telemetry packets is used to share measurements like repeteater parameters, battery voltage, radiation readings (or any other measurements).

<< 1 2 3 4 >>
Time Press* Temp.in* Hum* QNH* Temp.out*
1788693406 993 hPa 27.1 C deg 0 % 1028.5 hPa 0 C deg
1788691576 993.3 hPa 27 C deg 0 % 1028.8 hPa 0 C deg
1788689746 993.3 hPa 26.9 C deg 0 % 1028.8 hPa 0 C deg
1788687916 993.5 hPa 26.9 C deg 0 % 1029.1 hPa 0 C deg
1788686086 993.9 hPa 27 C deg 0 % 1029.5 hPa 0 C deg
1788684256 993.9 hPa 26.9 C deg 0 % 1029.5 hPa 0 C deg
1788682425 994 hPa 26.9 C deg 0 % 1029.6 hPa 0 C deg
1788680595 994 hPa 27 C deg 0 % 1029.6 hPa 0 C deg
1788678765 993.8 hPa 27 C deg 0 % 1029.3 hPa 0 C deg
1788676935 993.5 hPa 27 C deg 0 % 1029.1 hPa 0 C deg
1788675105 993.3 hPa 27 C deg 0 % 1028.9 hPa 0 C deg
1788673275 993.2 hPa 27.1 C deg 0 % 1028.7 hPa 0 C deg
1788671472 993 hPa 27.1 C deg 0 % 1028.5 hPa 0 C deg
1788669615 992.7 hPa 27.2 C deg 0 % 1028.2 hPa 0 C deg
1788667785 992.6 hPa 27.3 C deg 0 % 1028.1 hPa 0 C deg
1788665955 992.4 hPa 27.4 C deg 0 % 1027.9 hPa 0 C deg
1788664124 992.3 hPa 27.4 C deg 0 % 1027.7 hPa 0 C deg
1788662294 992.2 hPa 27.5 C deg 0 % 1027.6 hPa 0 C deg
1788660464 992.2 hPa 27.6 C deg 0 % 1027.6 hPa 0 C deg
1788658634 992.1 hPa 27.6 C deg 0 % 1027.5 hPa 0 C deg
1788656804 991.9 hPa 27.7 C deg 0 % 1027.3 hPa 0 C deg
1788654974 991.7 hPa 27.8 C deg 0 % 1027.1 hPa 0 C deg
1788653144 991.6 hPa 27.9 C deg 0 % 1027 hPa 0 C deg
1788651314 991.3 hPa 28 C deg 0 % 1026.7 hPa 0 C deg
1788649484 991.1 hPa 28 C deg 0 % 1026.5 hPa 0 C deg
*Used Equation Coefficients:
Press: 0, 1, 0
Temp.in: 0, 1, 0
Hum: 0, 1, 0
QNH: 0, 1, 0
Temp.out: 0, 1, 0

  • The parameter names for the analog channels will be Value1, Value2, Value3 (up to Value5) if station has not sent a PARAM-packet that specifies the parameter names for each analog channel.
  • Each analog value is a decimal number between 000 and 255 (according to APRS specifications). The receiver use the telemetry equation coefficientsto to restore the original sensor values. If no EQNS-packet with equation coefficients is sent we will show the values as is (this corresponds to the equation coefficients a=0, b=1 and c=0).
    The sent equation coefficients is used in the equation: a * value2 + b * value + c.
  • The units for the analog values will not be shown if station has not sent a UNIT-packet specifying what unit's to use.
  • The parameter names for the digital bits will be Bit1, Bit2, Bit3 (up to Bit8) if station has not sent a PARAM-packet that specifies the parameter names for each digital bit.
  • All bit labels will be named "On" if station has not sent a UNIT-packet that specifies the label of each bit.
  • A bit is considered to be On when the bit is 1 if station has not sent a BITS-packet that specifies another "Bit sense" (a BITS-packet specify the state of the bits that match the BIT labels)